createdAt,value
2022-08-10T00:02:15.592Z,0.20
2022-08-10T00:04:43.272Z,0.20
2022-08-10T00:07:10.847Z,0.20
2022-08-10T00:09:50.601Z,0.20
2022-08-10T00:12:19.539Z,0.20
2022-08-10T00:14:47.181Z,0.20
2022-08-10T00:17:16.136Z,0.20
2022-08-10T00:20:03.062Z,0.20
2022-08-10T00:22:31.290Z,0.20
2022-08-10T00:24:58.959Z,0.20
2022-08-10T00:27:50.119Z,0.20
2022-08-10T00:30:14.557Z,0.20
2022-08-10T00:32:43.498Z,0.20
2022-08-10T00:35:11.052Z,0.20
2022-08-10T00:37:38.607Z,0.20
2022-08-10T00:40:07.046Z,0.20
2022-08-10T00:42:34.841Z,0.20
2022-08-10T00:45:03.117Z,0.20
2022-08-10T00:47:35.899Z,0.10
2022-08-10T00:50:07.495Z,0.20
2022-08-10T00:52:36.243Z,0.20
2022-08-10T00:55:05.199Z,0.20
2022-08-10T00:57:33.344Z,0.20
2022-08-10T01:00:01.026Z,0.20
2022-08-10T01:02:30.098Z,0.20
2022-08-10T01:05:01.584Z,0.20
2022-08-10T01:07:42.966Z,0.20
2022-08-10T01:10:16.136Z,0.20
2022-08-10T01:12:47.399Z,0.20
2022-08-10T01:15:17.624Z,0.20
2022-08-10T01:17:51.561Z,0.20
2022-08-10T01:20:30.122Z,0.20
2022-08-10T01:23:13.575Z,0.20
2022-08-10T01:26:12.028Z,0.20
2022-08-10T01:28:47.169Z,0.20
2022-08-10T01:31:21.176Z,0.20
2022-08-10T01:33:58.962Z,0.20
2022-08-10T01:36:32.868Z,0.15
2022-08-10T01:39:03.389Z,0.17
2022-08-10T01:41:44.001Z,0.20
2022-08-10T01:44:15.309Z,0.20
2022-08-10T01:46:48.292Z,0.20
2022-08-10T01:49:20.148Z,0.20
2022-08-10T01:51:50.572Z,0.20
2022-08-10T01:54:21.008Z,0.20
2022-08-10T01:56:50.049Z,0.20
2022-08-10T01:59:20.366Z,0.20
2022-08-10T02:01:50.581Z,0.20
2022-08-10T02:04:19.188Z,0.20
2022-08-10T02:06:48.493Z,0.25
2022-08-10T02:09:18.206Z,0.20
2022-08-10T02:12:05.276Z,0.30
2022-08-10T02:14:34.508Z,0.30
2022-08-10T02:17:04.739Z,0.20
2022-08-10T02:19:34.343Z,0.20
2022-08-10T02:22:34.949Z,0.20
2022-08-10T02:24:50.768Z,0.20
2022-08-10T02:27:18.942Z,0.20
2022-08-10T02:29:49.135Z,0.20
2022-08-10T02:32:24.523Z,0.20
2022-08-10T02:35:06.803Z,0.20
2022-08-10T02:37:35.323Z,0.20
2022-08-10T02:40:02.875Z,0.20
2022-08-10T02:45:29.303Z,0.30
2022-08-10T02:45:31.061Z,0.28
2022-08-10T02:48:02.420Z,0.20
2022-08-10T02:50:30.964Z,0.22
2022-08-10T02:53:02.009Z,0.20
2022-08-10T02:55:32.996Z,0.20
2022-08-10T02:58:15.343Z,0.20
2022-08-10T03:00:47.373Z,0.20
2022-08-10T03:03:18.905Z,0.20
2022-08-10T03:05:48.584Z,0.20
2022-08-10T03:08:17.930Z,0.25
2022-08-10T03:10:46.156Z,0.20
2022-08-10T03:13:14.244Z,0.20
2022-08-10T03:15:42.361Z,0.30
2022-08-10T03:18:10.620Z,0.22
2022-08-10T03:20:40.693Z,0.20
2022-08-10T03:23:10.731Z,0.30
2022-08-10T03:25:38.586Z,0.25
2022-08-10T03:28:06.555Z,0.20
2022-08-10T03:30:35.069Z,0.20
2022-08-10T03:33:03.700Z,0.20
2022-08-10T03:35:31.354Z,0.30
2022-08-10T03:38:00.498Z,0.25
2022-08-10T03:40:44.908Z,0.30
2022-08-10T03:43:16.686Z,0.28
2022-08-10T03:45:54.366Z,0.20
2022-08-10T03:48:23.536Z,0.20
2022-08-10T03:50:52.722Z,0.20
2022-08-10T03:54:02.470Z,0.30
2022-08-10T03:56:28.053Z,0.25
2022-08-10T03:58:58.003Z,0.30
2022-08-10T04:02:46.985Z,0.30
2022-08-10T04:04:16.391Z,0.20
2022-08-10T04:06:46.930Z,0.20
2022-08-10T04:09:20.773Z,0.30
2022-08-10T04:11:48.434Z,0.20
2022-08-10T04:14:38.190Z,0.30
2022-08-10T04:17:03.544Z,0.30
2022-08-10T04:19:34.591Z,0.30
2022-08-10T04:22:05.994Z,0.20
2022-08-10T04:24:35.724Z,0.22
2022-08-10T04:27:03.597Z,0.20
2022-08-10T04:29:31.284Z,0.22
2022-08-10T04:31:58.827Z,0.30
2022-08-10T04:34:26.923Z,0.30
2022-08-10T04:36:55.604Z,0.30
2022-08-10T04:39:23.202Z,0.20
2022-08-10T04:41:52.189Z,0.20
2022-08-10T04:44:19.759Z,0.30
2022-08-10T04:46:58.552Z,0.30
2022-08-10T04:49:53.854Z,0.20
2022-08-10T04:52:15.092Z,0.20
2022-08-10T04:54:42.605Z,0.20
2022-08-10T04:57:11.542Z,0.20
2022-08-10T04:59:39.077Z,0.20
2022-08-10T05:02:22.568Z,0.20
2022-08-10T05:04:54.297Z,0.20
2022-08-10T05:07:21.867Z,0.20
2022-08-10T05:10:02.231Z,0.10
2022-08-10T05:12:35.818Z,0.20
2022-08-10T05:15:04.838Z,0.17
2022-08-10T05:17:32.310Z,0.20
2022-08-10T05:20:02.891Z,0.20
2022-08-10T05:22:37.304Z,0.20
2022-08-10T05:25:05.707Z,0.10
2022-08-10T05:27:34.738Z,0.10
2022-08-10T05:30:03.694Z,0.17
2022-08-10T05:32:32.133Z,0.10
2022-08-10T05:34:59.815Z,0.20
2022-08-10T05:38:11.418Z,0.17
2022-08-10T05:40:17.131Z,0.20
2022-08-10T05:42:46.083Z,0.13
2022-08-10T05:45:14.531Z,0.20
2022-08-10T05:48:54.462Z,0.20
2022-08-10T05:50:30.985Z,0.20
2022-08-10T05:53:01.552Z,0.20
2022-08-10T05:55:46.387Z,0.20
2022-08-10T05:58:15.272Z,0.13
2022-08-10T06:00:46.099Z,0.20
2022-08-10T06:03:24.092Z,0.10
2022-08-10T06:05:54.156Z,0.10
2022-08-10T06:08:24.039Z,0.10
2022-08-10T06:12:26.611Z,0.10
2022-08-10T06:14:13.829Z,0.10
2022-08-10T06:16:44.231Z,0.10
2022-08-10T06:19:15.075Z,0.00
2022-08-10T06:21:55.311Z,0.00
2022-08-10T06:24:30.283Z,0.00
2022-08-10T06:26:58.464Z,0.00
2022-08-10T06:29:28.249Z,0.00
2022-08-10T06:31:56.687Z,0.00
2022-08-10T06:34:26.882Z,0.00
2022-08-10T06:36:55.576Z,0.00
2022-08-10T06:39:33.655Z,0.00
2022-08-10T06:42:15.942Z,0.00
2022-08-10T06:44:52.991Z,0.00
2022-08-10T06:47:23.148Z,0.00
2022-08-10T06:49:53.041Z,0.00
2022-08-10T06:52:21.116Z,0.00
2022-08-10T06:54:50.129Z,0.00
2022-08-10T06:57:18.651Z,0.00
2022-08-10T06:59:49.068Z,0.00
2022-08-10T07:02:28.550Z,0.00
2022-08-10T07:04:59.536Z,0.00
2022-08-10T07:07:29.413Z,0.00
2022-08-10T07:09:58.338Z,0.00
2022-08-10T07:12:26.434Z,0.00
2022-08-10T07:14:54.922Z,0.00
2022-08-10T07:17:25.059Z,0.00
2022-08-10T07:19:53.702Z,0.00
2022-08-10T07:23:01.140Z,0.00
2022-08-10T07:25:10.391Z,0.00
2022-08-10T07:27:59.955Z,0.00
2022-08-10T07:30:28.217Z,0.00
2022-08-10T07:32:57.276Z,0.00
2022-08-10T07:35:25.642Z,0.00
2022-08-10T07:37:53.691Z,0.00
2022-08-10T07:40:22.664Z,0.00
2022-08-10T07:42:53.206Z,0.00
2022-08-10T07:45:20.936Z,0.00
2022-08-10T07:47:54.862Z,0.00
2022-08-10T07:50:25.580Z,0.00
2022-08-10T07:52:53.555Z,0.00
2022-08-10T07:56:05.801Z,0.00
2022-08-10T07:58:09.879Z,0.00
2022-08-10T08:00:38.166Z,0.00
2022-08-10T08:03:07.439Z,0.00
2022-08-10T08:05:58.906Z,0.00
2022-08-10T08:08:25.137Z,0.00
2022-08-10T08:10:56.991Z,0.00
2022-08-10T08:13:24.768Z,0.00
2022-08-10T08:16:17.499Z,0.00
2022-08-10T08:18:45.711Z,0.00
2022-08-10T08:24:05.539Z,0.00
2022-08-10T08:24:32.704Z,0.00
2022-08-10T08:27:02.386Z,0.00
2022-08-10T08:29:30.455Z,0.00
2022-08-10T08:32:01.574Z,0.00
2022-08-10T08:34:31.455Z,0.00
2022-08-10T08:37:01.159Z,0.00
2022-08-10T08:39:29.017Z,0.00
2022-08-10T08:42:14.234Z,0.00
2022-08-10T08:44:48.371Z,0.00
2022-08-10T08:48:02.835Z,0.00
2022-08-10T08:50:19.096Z,0.00
2022-08-10T08:52:54.543Z,0.00
2022-08-10T08:56:04.580Z,0.00
2022-08-10T08:58:23.081Z,0.00
2022-08-10T09:00:53.284Z,0.00
2022-08-10T09:03:41.602Z,0.00
2022-08-10T09:06:17.373Z,0.00
2022-08-10T09:08:55.905Z,0.00
2022-08-10T09:11:29.419Z,0.00
2022-08-10T09:14:00.437Z,0.00
2022-08-10T09:16:30.806Z,0.00
2022-08-10T09:19:03.285Z,0.10
2022-08-10T09:21:34.365Z,0.10
2022-08-10T09:24:19.892Z,0.10
2022-08-10T09:26:50.417Z,0.10
2022-08-10T09:29:22.562Z,0.10
2022-08-10T09:32:55.995Z,0.10
2022-08-10T09:36:27.659Z,0.10
2022-08-10T09:38:02.442Z,0.10
2022-08-10T09:41:00.576Z,0.10
2022-08-10T09:43:26.556Z,0.10
2022-08-10T09:46:12.146Z,0.10
2022-08-10T09:48:44.696Z,0.10
2022-08-10T09:51:43.798Z,0.10
2022-08-10T09:54:08.155Z,0.10
2022-08-10T09:57:02.997Z,0.10
2022-08-10T10:00:00.758Z,0.20
2022-08-10T10:02:37.127Z,0.10
2022-08-10T10:05:08.944Z,0.10
2022-08-10T10:07:44.223Z,0.10
2022-08-10T10:10:14.032Z,0.20
2022-08-10T10:12:51.313Z,0.10
2022-08-10T10:15:26.136Z,0.17
2022-08-10T10:18:08.656Z,0.10
2022-08-10T10:20:38.648Z,0.15
2022-08-10T10:23:09.624Z,0.10
2022-08-10T10:25:50.151Z,0.10
2022-08-10T10:28:25.893Z,0.10
2022-08-10T10:31:19.927Z,0.10
2022-08-10T10:33:52.403Z,0.10
2022-08-10T10:36:20.389Z,0.10
2022-08-10T10:38:48.455Z,0.10
2022-08-10T10:41:19.825Z,0.10
2022-08-10T10:43:52.285Z,0.13
2022-08-10T10:46:29.401Z,0.10
2022-08-10T10:49:01.662Z,0.10
2022-08-10T10:51:34.171Z,0.10
2022-08-10T10:54:04.686Z,0.15
2022-08-10T10:56:40.689Z,0.10
2022-08-10T10:59:33.486Z,0.10
2022-08-10T11:02:10.370Z,0.10
2022-08-10T11:04:41.469Z,0.10
2022-08-10T11:07:15.716Z,0.10
2022-08-10T11:10:08.652Z,0.10
2022-08-10T11:12:34.899Z,0.20
2022-08-10T11:15:05.505Z,0.10
2022-08-10T11:17:35.820Z,0.10
2022-08-10T11:20:06.661Z,0.10
2022-08-10T11:22:36.763Z,0.10
2022-08-10T11:25:09.296Z,0.10
2022-08-10T11:27:40.550Z,0.20
2022-08-10T11:30:09.296Z,0.10
2022-08-10T11:32:43.868Z,0.10
2022-08-10T11:35:18.752Z,0.20
2022-08-10T11:38:30.250Z,0.10
2022-08-10T11:40:44.434Z,0.10
2022-08-10T11:43:14.395Z,0.10
2022-08-10T11:45:52.352Z,0.10
2022-08-10T11:48:53.149Z,0.10
2022-08-10T11:51:20.108Z,0.10
2022-08-10T11:53:50.992Z,0.10
2022-08-10T11:56:25.026Z,0.10
2022-08-10T11:59:17.167Z,0.10
2022-08-10T12:01:46.525Z,0.10
2022-08-10T12:04:15.897Z,0.10
2022-08-10T12:06:59.811Z,0.10
2022-08-10T12:10:08.634Z,0.10
2022-08-10T12:12:16.300Z,0.10
2022-08-10T12:14:45.841Z,0.10
2022-08-10T12:17:16.952Z,0.10
2022-08-10T12:20:01.311Z,0.10
2022-08-10T12:22:34.110Z,0.10
2022-08-10T12:25:03.839Z,0.20
2022-08-10T12:27:33.230Z,0.10
2022-08-10T12:30:04.130Z,0.10
2022-08-10T12:32:33.906Z,0.10
2022-08-10T12:35:05.034Z,0.10
2022-08-10T12:37:34.422Z,0.10
2022-08-10T12:40:33.875Z,0.10
2022-08-10T12:43:01.633Z,0.10
2022-08-10T12:45:43.117Z,0.20
2022-08-10T12:48:12.485Z,0.05
2022-08-10T12:50:43.694Z,0.10
2022-08-10T12:53:20.213Z,0.10
2022-08-10T12:55:49.313Z,0.10
2022-08-10T12:58:57.239Z,0.13
2022-08-10T13:01:17.199Z,0.10
2022-08-10T13:04:23.726Z,0.10
2022-08-10T13:06:37.693Z,0.10
2022-08-10T13:09:12.950Z,0.15
2022-08-10T13:12:38.748Z,0.10
2022-08-10T13:14:32.622Z,0.10
2022-08-10T13:17:01.459Z,0.10
2022-08-10T13:19:37.627Z,0.10
2022-08-10T13:22:18.631Z,0.10
2022-08-10T13:24:55.679Z,0.03
2022-08-10T13:28:00.643Z,0.10
2022-08-10T13:30:14.905Z,0.10
2022-08-10T13:32:48.061Z,0.10
2022-08-10T13:35:17.743Z,0.10
2022-08-10T13:37:48.260Z,0.10
2022-08-10T13:40:17.520Z,0.10
2022-08-10T13:42:45.926Z,0.10
2022-08-10T13:45:17.189Z,0.10
2022-08-10T13:47:48.494Z,0.10
2022-08-10T13:50:22.114Z,0.10
2022-08-10T13:53:11.686Z,0.10
2022-08-10T13:55:54.122Z,0.10
2022-08-10T13:58:26.089Z,0.10
2022-08-10T14:00:54.558Z,0.10
2022-08-10T14:03:23.274Z,0.00
2022-08-10T14:05:52.034Z,0.10
2022-08-10T14:08:24.099Z,0.20
2022-08-10T14:11:02.105Z,0.10
2022-08-10T14:13:41.384Z,0.10
2022-08-10T14:16:11.689Z,0.10
2022-08-10T14:18:39.613Z,0.10
2022-08-10T14:21:07.627Z,0.10
2022-08-10T14:23:41.722Z,0.08
2022-08-10T14:26:09.835Z,0.10
2022-08-10T14:28:39.578Z,0.10
2022-08-10T14:31:08.154Z,0.10
2022-08-10T14:33:36.629Z,0.10
2022-08-10T14:36:21.179Z,0.10
2022-08-10T14:38:54.970Z,0.00
2022-08-10T14:42:03.261Z,0.10
2022-08-10T14:44:14.617Z,0.10
2022-08-10T14:46:44.323Z,0.10
2022-08-10T14:49:25.360Z,0.10
2022-08-10T14:51:53.718Z,0.10
2022-08-10T14:54:29.734Z,0.10
2022-08-10T14:56:57.950Z,0.10
2022-08-10T14:59:45.928Z,0.10
2022-08-10T15:02:40.124Z,0.10
2022-08-10T15:05:09.095Z,0.10
2022-08-10T15:07:37.451Z,0.10
2022-08-10T15:10:08.322Z,0.10
2022-08-10T15:12:37.013Z,0.10
2022-08-10T15:15:08.367Z,0.10
2022-08-10T15:17:39.714Z,0.10
2022-08-10T15:20:14.824Z,0.10
2022-08-10T15:22:49.880Z,0.10
2022-08-10T15:25:24.184Z,0.10
2022-08-10T15:27:55.707Z,0.10
2022-08-10T15:30:31.378Z,0.10
2022-08-10T15:33:21.667Z,0.10
2022-08-10T15:36:24.121Z,0.10
2022-08-10T15:38:57.685Z,0.10
2022-08-10T15:41:57.394Z,0.10
2022-08-10T15:44:23.793Z,0.10
2022-08-10T15:46:53.136Z,0.10
2022-08-10T15:49:24.501Z,0.10
2022-08-10T15:51:57.110Z,0.10
2022-08-10T15:54:33.516Z,0.10
2022-08-10T15:57:04.805Z,0.10
2022-08-10T15:59:33.465Z,0.10
2022-08-10T16:02:04.609Z,0.10
2022-08-10T16:04:48.477Z,0.10
2022-08-10T16:07:19.520Z,0.10
2022-08-10T16:10:10.570Z,0.10
2022-08-10T16:12:41.614Z,0.13
2022-08-10T16:15:12.378Z,0.10
2022-08-10T16:17:54.842Z,0.10
2022-08-10T16:20:26.967Z,0.10
2022-08-10T16:22:56.633Z,0.10
2022-08-10T16:25:24.644Z,0.10
2022-08-10T16:28:20.143Z,0.10
2022-08-10T16:30:53.466Z,0.10
2022-08-10T16:33:23.446Z,0.13
2022-08-10T16:35:53.554Z,0.10
2022-08-10T16:38:22.369Z,0.10
2022-08-10T16:40:50.810Z,0.10
2022-08-10T16:43:23.897Z,0.10
2022-08-10T16:45:53.679Z,0.20
2022-08-10T16:48:49.060Z,0.10
2022-08-10T16:51:14.136Z,0.17
2022-08-10T16:53:47.546Z,0.10
2022-08-10T16:56:15.911Z,0.17
2022-08-10T16:58:49.148Z,0.10
2022-08-10T17:01:17.930Z,0.10
2022-08-10T17:04:08.423Z,0.05
2022-08-10T17:06:36.051Z,0.10
2022-08-10T17:09:05.630Z,0.10
2022-08-10T17:11:34.326Z,0.10
2022-08-10T17:14:04.173Z,0.10
2022-08-10T17:16:35.251Z,0.10
2022-08-10T17:19:03.297Z,0.10
2022-08-10T17:21:32.164Z,0.10
2022-08-10T17:24:05.519Z,0.10
2022-08-10T17:26:37.565Z,0.10
2022-08-10T17:29:54.139Z,0.10
2022-08-10T17:32:00.587Z,0.10
2022-08-10T17:34:30.471Z,0.15
2022-08-10T17:36:58.953Z,0.10
2022-08-10T17:39:29.835Z,0.10
2022-08-10T17:42:00.959Z,0.10
2022-08-10T17:44:30.190Z,0.10
2022-08-10T17:46:57.928Z,0.10
2022-08-10T17:49:26.489Z,0.10
2022-08-10T17:51:54.951Z,0.10
2022-08-10T17:54:25.128Z,0.10
2022-08-10T17:56:54.838Z,0.10
2022-08-10T17:59:24.246Z,0.17
2022-08-10T18:02:01.690Z,0.13
2022-08-10T18:04:41.331Z,0.10
2022-08-10T18:07:10.863Z,0.10
2022-08-10T18:09:41.277Z,0.10
2022-08-10T18:12:17.734Z,0.10
2022-08-10T18:14:47.815Z,0.10
2022-08-10T18:17:19.055Z,0.10
2022-08-10T18:19:47.742Z,0.10
2022-08-10T18:22:16.441Z,0.10
2022-08-10T18:24:44.975Z,0.10
2022-08-10T18:27:13.219Z,0.13
2022-08-10T18:29:42.828Z,0.10
2022-08-10T18:32:11.391Z,0.10
2022-08-10T18:34:41.819Z,0.10
2022-08-10T18:37:10.909Z,0.17
2022-08-10T18:39:39.692Z,0.10
2022-08-10T18:42:09.903Z,0.10
2022-08-10T18:44:39.048Z,0.20
2022-08-10T18:47:09.500Z,0.10
2022-08-10T18:49:50.819Z,0.10
2022-08-10T18:52:20.864Z,0.20
2022-08-10T18:54:49.590Z,0.10
2022-08-10T18:57:26.139Z,0.10
2022-08-10T19:00:07.351Z,0.10
2022-08-10T19:02:56.380Z,0.10
2022-08-10T19:05:32.321Z,0.10
2022-08-10T19:08:14.987Z,0.10
2022-08-10T19:11:03.036Z,0.10
2022-08-10T19:13:33.682Z,0.10
2022-08-10T19:16:04.474Z,0.10
2022-08-10T19:18:33.648Z,0.10
2022-08-10T19:21:09.685Z,0.10
2022-08-10T19:23:40.646Z,0.10
2022-08-10T19:26:45.008Z,0.15
2022-08-10T19:30:09.187Z,0.17
2022-08-10T19:32:10.586Z,0.10
2022-08-10T19:34:51.241Z,0.20
2022-08-10T19:37:32.455Z,0.10
2022-08-10T19:40:11.828Z,0.17
2022-08-10T19:42:41.485Z,0.10
2022-08-10T19:46:02.137Z,0.10
2022-08-10T19:48:10.167Z,0.13
2022-08-10T19:50:39.860Z,0.10
2022-08-10T19:53:10.985Z,0.10
2022-08-10T19:55:54.003Z,0.20
2022-08-10T19:58:24.388Z,0.10
2022-08-10T20:00:57.254Z,0.20
2022-08-10T20:03:27.600Z,0.20
2022-08-10T20:06:18.330Z,0.10
2022-08-10T20:08:51.381Z,0.20
2022-08-10T20:11:42.535Z,0.17
2022-08-10T20:14:21.377Z,0.10
2022-08-10T20:16:51.100Z,0.10
2022-08-10T20:19:23.929Z,0.20
2022-08-10T20:21:55.519Z,0.20
2022-08-10T20:24:29.143Z,0.20
2022-08-10T20:27:08.901Z,0.20
2022-08-10T20:29:58.291Z,0.20
2022-08-10T20:32:29.159Z,0.10
2022-08-10T20:34:57.517Z,0.10
2022-08-10T20:37:45.201Z,0.20
2022-08-10T20:40:20.847Z,0.10
2022-08-10T20:42:51.222Z,0.20
2022-08-10T20:45:22.410Z,0.20
2022-08-10T20:47:54.833Z,0.10
2022-08-10T20:50:27.202Z,0.20
2022-08-10T20:52:55.556Z,0.20
2022-08-10T20:55:27.227Z,0.20
2022-08-10T20:58:00.475Z,0.13
2022-08-10T21:00:35.580Z,0.20
2022-08-10T21:03:15.688Z,0.20
2022-08-10T21:05:55.796Z,0.20
2022-08-10T21:08:30.028Z,0.10
2022-08-10T21:11:03.919Z,0.10
2022-08-10T21:13:37.275Z,0.20
2022-08-10T21:16:11.197Z,0.20
2022-08-10T21:18:51.928Z,0.20
2022-08-10T21:21:41.025Z,0.20
2022-08-10T21:24:12.328Z,0.10
2022-08-10T21:26:56.713Z,0.20
2022-08-10T21:29:39.761Z,0.13
2022-08-10T21:32:11.116Z,0.20
2022-08-10T21:34:54.220Z,0.13
2022-08-10T21:37:25.697Z,0.10
2022-08-10T21:40:32.441Z,0.20
2022-08-10T21:43:44.137Z,0.20
2022-08-10T21:46:32.278Z,0.20
2022-08-10T21:49:22.742Z,0.20
2022-08-10T21:52:12.561Z,0.20
2022-08-10T21:55:08.548Z,0.13
2022-08-10T21:58:00.235Z,0.17
2022-08-10T22:00:51.763Z,0.10
2022-08-10T22:03:40.185Z,0.20
2022-08-10T22:06:52.714Z,0.20
2022-08-10T22:09:49.695Z,0.20
2022-08-10T22:12:38.979Z,0.20
2022-08-10T22:16:09.950Z,0.20
2022-08-10T22:18:53.826Z,0.20
2022-08-10T22:21:54.574Z,0.20
2022-08-10T22:24:46.743Z,0.10
2022-08-10T22:27:47.081Z,0.20
2022-08-10T22:30:57.899Z,0.20
2022-08-10T22:34:00.040Z,0.17
2022-08-10T22:37:02.927Z,0.20
2022-08-10T22:40:11.820Z,0.20
2022-08-10T22:43:10.539Z,0.20
2022-08-10T22:45:57.456Z,0.20
2022-08-10T22:48:42.422Z,0.10
2022-08-10T22:51:16.030Z,0.20
2022-08-10T22:54:03.587Z,0.10
2022-08-10T22:56:48.718Z,0.15
2022-08-10T22:59:27.063Z,0.20
2022-08-10T23:02:07.323Z,0.20
2022-08-10T23:04:44.793Z,0.10
2022-08-10T23:07:20.805Z,0.20
2022-08-10T23:09:52.707Z,0.20
2022-08-10T23:12:23.174Z,0.20
2022-08-10T23:14:59.317Z,0.20
2022-08-10T23:18:02.124Z,0.20
2022-08-10T23:20:30.980Z,0.20
2022-08-10T23:23:08.955Z,0.20
2022-08-10T23:25:56.571Z,0.20
2022-08-10T23:28:38.965Z,0.20
2022-08-10T23:31:14.225Z,0.10
2022-08-10T23:33:42.523Z,0.20
2022-08-10T23:36:33.882Z,0.20
2022-08-10T23:39:26.298Z,0.20
2022-08-10T23:41:53.326Z,0.20
2022-08-10T23:44:22.646Z,0.20
2022-08-10T23:46:50.594Z,0.20
2022-08-10T23:49:19.418Z,0.20
2022-08-10T23:51:55.078Z,0.20
2022-08-10T23:54:25.861Z,0.20
2022-08-10T23:57:01.103Z,0.20
2022-08-10T23:59:31.718Z,0.20
